sensor_id;sensor_type;location;lat;lon;timestamp;pressure;altitude;pressure_sealevel;temperature;humidity
61500;BME280;47361;49.996;19.918;2024-03-29T00:01:54;97372.61;;;7.3;87
61500;BME280;47361;49.996;19.918;2024-03-29T00:04:54;97374.19;;;7.2;88
61500;BME280;47361;49.996;19.918;2024-03-29T00:12:54;97389.38;;;7.3;87
61500;BME280;47361;49.996;19.918;2024-03-29T00:13:54;97391.31;;;7.2;88
61500;BME280;47361;49.996;19.918;2024-03-29T00:23:54;97404.54999999999;;;7.1;89
61500;BME280;47361;49.996;19.918;2024-03-29T00:27:54;97410.99;;;7.2;88
61500;BME280;47361;49.996;19.918;2024-03-29T00:28:54;97413.23999999999;;;7.1;88
61500;BME280;47361;49.996;19.918;2024-03-29T00:36:54;97438.36;;;7.2;88
61500;BME280;47361;49.996;19.918;2024-03-29T00:38:54;97440.34;;;7.1;88
61500;BME280;47361;49.996;19.918;2024-03-29T00:41:54;97442.94;;;7.2;88
61500;BME280;47361;49.996;19.918;2024-03-29T00:43:54;97443.17;;;7.1;88
61500;BME280;47361;49.996;19.918;2024-03-29T00:45:54;97445.84;;;7.2;88
61500;BME280;47361;49.996;19.918;2024-03-29T00:51:54;97459.22;;;7.3;87
61500;BME280;47361;49.996;19.918;2024-03-29T00:52:54;97461.84;;;7.2;87
61500;BME280;47361;49.996;19.918;2024-03-29T00:56:54;97465.01;;;7.3;87
61500;BME280;47361;49.996;19.918;2024-03-29T00:58:54;97475.33;;;7.2;87
61500;BME280;47361;49.996;19.918;2024-03-29T01:01:54;97493.75;;;7.3;87
61500;BME280;47361;49.996;19.918;2024-03-29T01:02:54;97499.65999999999;;;7.2;87
61500;BME280;47361;49.996;19.918;2024-03-29T01:36:54;97528.83;;;7.3;85
61500;BME280;47361;49.996;19.918;2024-03-29T01:37:54;97533.31;;;7.2;85
61500;BME280;47361;49.996;19.918;2024-03-29T01:42:54;97548.03;;;7.1;85
61500;BME280;47361;49.996;19.918;2024-03-29T01:48:54;97563.79;;;7.0;85
61500;BME280;47361;49.996;19.918;2024-03-29T01:54:54;97575.09;;;6.9;85
61500;BME280;47361;49.996;19.918;2024-03-29T01:59:54;97596.78;;;6.8;85
61500;BME280;47361;49.996;19.918;2024-03-29T02:08:54;97623.29999999999;;;6.7;85
61500;BME280;47361;49.996;19.918;2024-03-29T02:13:54;97638.69;;;6.6;85
61500;BME280;47361;49.996;19.918;2024-03-29T02:22:54;97666.28;;;6.5;85
61500;BME280;47361;49.996;19.918;2024-03-29T02:27:54;97688.31;;;6.4;85
61500;BME280;47361;49.996;19.918;2024-03-29T02:32:54;97690.44;;;6.3;85
61500;BME280;47361;49.996;19.918;2024-03-29T02:33:54;97696.59;;;6.4;85
61500;BME280;47361;49.996;19.918;2024-03-29T02:34:54;97695.39;;;6.3;85
61500;BME280;47361;49.996;19.918;2024-03-29T02:35:54;97707.56999999999;;;6.4;85
61500;BME280;47361;49.996;19.918;2024-03-29T02:39:54;97715.11;;;6.3;85
61500;BME280;47361;49.996;19.918;2024-03-29T02:40:54;97718.8;;;6.4;84
61500;BME280;47361;49.996;19.918;2024-03-29T02:47:54;97718.06;;;6.3;83
61500;BME280;47361;49.996;19.918;2024-03-29T02:48:54;97714.86;;;6.4;83
61500;BME280;47361;49.996;19.918;2024-03-29T02:55:54;97713.83;;;6.5;82
61500;BME280;47361;49.996;19.918;2024-03-29T02:57:54;97722.85;;;6.4;81
61500;BME280;47361;49.996;19.918;2024-03-29T03:06:54;97741.25;;;6.5;81
61500;BME280;47361;49.996;19.918;2024-03-29T03:07:54;97744.64;;;6.4;80
61500;BME280;47361;49.996;19.918;2024-03-29T03:26:54;97791.83;;;6.5;79
61500;BME280;47361;49.996;19.918;2024-03-29T03:34:54;97808.37;;;6.4;79
61500;BME280;47361;49.996;19.918;2024-03-29T03:35:54;97809.06999999999;;;6.5;79
61500;BME280;47361;49.996;19.918;2024-03-29T03:40:54;97794.95;;;6.6;79
61500;BME280;47361;49.996;19.918;2024-03-29T03:41:54;97799.86;;;6.7;79
61500;BME280;47361;49.996;19.918;2024-03-29T03:49:54;97794.73000000001;;;6.6;77
61500;BME280;47361;49.996;19.918;2024-03-29T03:55:54;97808.79;;;6.7;77
61500;BME280;47361;49.996;19.918;2024-03-29T03:57:54;97807.34;;;6.6;77
61500;BME280;47361;49.996;19.918;2024-03-29T04:00:54;97813.98000000001;;;6.7;77
61500;BME280;47361;49.996;19.918;2024-03-29T04:02:54;97813.09;;;6.6;77
61500;BME280;47361;49.996;19.918;2024-03-29T04:05:54;97817.46;;;6.7;77
61500;BME280;47361;49.996;19.918;2024-03-29T04:08:54;97827.11;;;6.6;76
61500;BME280;47361;49.996;19.918;2024-03-29T04:11:54;97825.62000000001;;;6.5;75
61500;BME280;47361;49.996;19.918;2024-03-29T04:13:54;97830.5;;;6.4;75
61500;BME280;47361;49.996;19.918;2024-03-29T04:14:54;97829.31999999999;;;6.3;75
61500;BME280;47361;49.996;19.918;2024-03-29T04:17:54;97829.33;;;6.2;76
61500;BME280;47361;49.996;19.918;2024-03-29T04:18:54;97829.49;;;6.1;76
61500;BME280;47361;49.996;19.918;2024-03-29T04:20:55;97828.99;;;6.2;76
61500;BME280;47361;49.996;19.918;2024-03-29T04:21:54;97836.84;;;6.1;76
61500;BME280;47361;49.996;19.918;2024-03-29T04:25:54;97839.11;;;6.2;76
61500;BME280;47361;49.996;19.918;2024-03-29T04:30:54;97844.92;;;6.3;76
61500;BME280;47361;49.996;19.918;2024-03-29T04:31:54;97840.56;;;6.2;76
61500;BME280;47361;49.996;19.918;2024-03-29T04:33:54;97848.01999999999;;;6.1;75
61500;BME280;47361;49.996;19.918;2024-03-29T04:34:54;97849.55;;;6.0;75
61500;BME280;47361;49.996;19.918;2024-03-29T04:37:54;97850.49;;;5.9;76
61500;BME280;47361;49.996;19.918;2024-03-29T04:48:54;97855.38;;;5.8;76
61500;BME280;47361;49.996;19.918;2024-03-29T04:50:54;97863.17;;;5.9;76
61500;BME280;47361;49.996;19.918;2024-03-29T04:51:54;97866.69;;;5.8;77
61500;BME280;47361;49.996;19.918;2024-03-29T04:54:54;97864.75;;;5.7;77
61500;BME280;47361;49.996;19.918;2024-03-29T04:55:54;97865.13;;;5.8;77
61500;BME280;47361;49.996;19.918;2024-03-29T05:00:54;97863.94;;;5.9;78
61500;BME280;47361;49.996;19.918;2024-03-29T05:04:54;97879.98999999999;;;6.0;78
61500;BME280;47361;49.996;19.918;2024-03-29T05:05:54;97885.63;;;6.1;78
61500;BME280;47361;49.996;19.918;2024-03-29T05:06:54;97889.5;;;6.0;77
61500;BME280;47361;49.996;19.918;2024-03-29T05:09:54;97879.24;;;6.1;78
61500;BME280;47361;49.996;19.918;2024-03-29T05:10:54;97875.2;;;6.2;78
61500;BME280;47361;49.996;19.918;2024-03-29T05:12:54;97866.78;;;6.3;78
61500;BME280;47361;49.996;19.918;2024-03-29T05:15:54;97865.37;;;6.5;78
61500;BME280;47361;49.996;19.918;2024-03-29T05:18:54;97864.86;;;6.6;78
61500;BME280;47361;49.996;19.918;2024-03-29T05:20:54;97864.5;;;6.7;78
61500;BME280;47361;49.996;19.918;2024-03-29T05:25:54;97871.88;;;6.8;77
61500;BME280;47361;49.996;19.918;2024-03-29T05:29:54;97882.05;;;6.9;77
61500;BME280;47361;49.996;19.918;2024-03-29T05:30:54;97878.28;;;7.0;77
61500;BME280;47361;49.996;19.918;2024-03-29T05:33:54;97889.12;;;7.1;77
61500;BME280;47361;49.996;19.918;2024-03-29T05:35:54;97900.39;;;7.2;76
61500;BME280;47361;49.996;19.918;2024-03-29T05:40:54;97899.14;;;7.3;76
61500;BME280;47361;49.996;19.918;2024-03-29T05:44:54;97907.03;;;7.4;76
61500;BME280;47361;49.996;19.918;2024-03-29T05:49:54;97920.9;;;7.5;74
61500;BME280;47361;49.996;19.918;2024-03-29T05:51:54;97916.04999999999;;;7.6;74
61500;BME280;47361;49.996;19.918;2024-03-29T05:54:54;97916.81999999999;;;7.7;74
61500;BME280;47361;49.996;19.918;2024-03-29T05:55:54;97917.11;;;7.8;74
61500;BME280;47361;49.996;19.918;2024-03-29T05:58:54;97923.25;;;7.9;73
61500;BME280;47361;49.996;19.918;2024-03-29T06:00:54;97918.81;;;8.0;73
61500;BME280;47361;49.996;19.918;2024-03-29T06:04:54;97917.3;;;8.1;72
61500;BME280;47361;49.996;19.918;2024-03-29T06:05:54;97917.25;;;8.2;72
61500;BME280;47361;49.996;19.918;2024-03-29T06:08:54;97923.91;;;8.3;72
61500;BME280;47361;49.996;19.918;2024-03-29T06:10:54;97920.28;;;8.4;69
61500;BME280;47361;49.996;19.918;2024-03-29T06:11:54;97922.56;;;8.5;69
61500;BME280;47361;49.996;19.918;2024-03-29T06:15:54;97921.98;;;8.6;69
61500;BME280;47361;49.996;19.918;2024-03-29T06:18:54;97928.28;;;8.7;68
61500;BME280;47361;49.996;19.918;2024-03-29T06:20:54;97932.92;;;8.8;68
61500;BME280;47361;49.996;19.918;2024-03-29T06:22:54;97941.35;;;8.9;68
61500;BME280;47361;49.996;19.918;2024-03-29T06:24:54;97943.16;;;9.0;67
61500;BME280;47361;49.996;19.918;2024-03-29T06:28:54;97945.01000000001;;;9.1;66
61500;BME280;47361;49.996;19.918;2024-03-29T06:33:54;97933.7;;;9.2;65
61500;BME280;47361;49.996;19.918;2024-03-29T06:35:54;97929.66;;;9.3;65
61500;BME280;47361;49.996;19.918;2024-03-29T06:37:54;97920.31;;;9.4;64
61500;BME280;47361;49.996;19.918;2024-03-29T06:39:54;97918.69;;;9.5;65
61500;BME280;47361;49.996;19.918;2024-03-29T06:41:54;97918.69;;;9.6;65
61500;BME280;47361;49.996;19.918;2024-03-29T06:44:54;97909.12;;;9.7;62
61500;BME280;47361;49.996;19.918;2024-03-29T06:46:54;97913.68;;;9.8;64
61500;BME280;47361;49.996;19.918;2024-03-29T06:49:54;97916.38;;;9.9;61
61500;BME280;47361;49.996;19.918;2024-03-29T06:51:54;97921.7;;;10.0;62
61500;BME280;47361;49.996;19.918;2024-03-29T06:54:54;97917.0;;;10.1;62
61500;BME280;47361;49.996;19.918;2024-03-29T06:55:54;97914.64;;;10.2;61
61500;BME280;47361;49.996;19.918;2024-03-29T06:58:54;97923.38;;;10.3;61
61500;BME280;47361;49.996;19.918;2024-03-29T07:00:54;97919.22;;;10.4;62
61500;BME280;47361;49.996;19.918;2024-03-29T07:03:54;97923.26000000001;;;10.5;60
61500;BME280;47361;49.996;19.918;2024-03-29T07:05:54;97932.83;;;10.6;60
61500;BME280;47361;49.996;19.918;2024-03-29T07:10:57;97935.94;;;10.7;57
61500;BME280;47361;49.996;19.918;2024-03-29T07:14:54;97942.1;;;10.8;59
61500;BME280;47361;49.996;19.918;2024-03-29T07:16:54;97939.25;;;10.9;58
61500;BME280;47361;49.996;19.918;2024-03-29T07:19:54;97924.8;;;11.0;58
61500;BME280;47361;49.996;19.918;2024-03-29T07:24:54;97907.05;;;11.1;57
61500;BME280;47361;49.996;19.918;2024-03-29T07:29:54;97890.18;;;11.2;56
61500;BME280;47361;49.996;19.918;2024-03-29T07:33:54;97882.76;;;11.3;55
61500;BME280;47361;49.996;19.918;2024-03-29T07:35:54;97873.32;;;11.4;54
61500;BME280;47361;49.996;19.918;2024-03-29T07:39:54;97873.13;;;11.5;52
61500;BME280;47361;49.996;19.918;2024-03-29T07:42:54;97873.47;;;11.6;54
61500;BME280;47361;49.996;19.918;2024-03-29T07:43:54;97871.26;;;11.5;52
61500;BME280;47361;49.996;19.918;2024-03-29T07:44:54;97880.52;;;11.6;53
61500;BME280;47361;49.996;19.918;2024-03-29T07:45:54;97884.91;;;11.7;54
61500;BME280;47361;49.996;19.918;2024-03-29T07:49:54;97905.59;;;11.8;52
61500;BME280;47361;49.996;19.918;2024-03-29T07:52:54;97915.23;;;11.9;51
61500;BME280;47361;49.996;19.918;2024-03-29T07:54:54;97916.25;;;12.0;52
61500;BME280;47361;49.996;19.918;2024-03-29T07:57:54;97922.70999999999;;;12.1;52
61500;BME280;47361;49.996;19.918;2024-03-29T07:59:54;97921.39;;;12.2;52
61500;BME280;47361;49.996;19.918;2024-03-29T08:01:54;97919.42;;;12.3;49
61500;BME280;47361;49.996;19.918;2024-03-29T08:04:54;97920.75;;;12.4;47
61500;BME280;47361;49.996;19.918;2024-03-29T08:09:54;97926.73;;;12.5;49
61500;BME280;47361;49.996;19.918;2024-03-29T08:12:54;97924.49;;;12.6;49
61500;BME280;47361;49.996;19.918;2024-03-29T08:14:54;97929.21;;;12.7;48
61500;BME280;47361;49.996;19.918;2024-03-29T08:19:54;97927.67;;;12.8;47
61500;BME280;47361;49.996;19.918;2024-03-29T08:24:54;97950.56;;;12.9;47
61500;BME280;47361;49.996;19.918;2024-03-29T08:25:54;97945.2;;;13.0;46
61500;BME280;47361;49.996;19.918;2024-03-29T08:27:54;97944.87000000001;;;12.9;44
61500;BME280;47361;49.996;19.918;2024-03-29T08:30:57;97938.12000000001;;;13.0;45
61500;BME280;47361;49.996;19.918;2024-03-29T08:36:54;97942.24;;;13.1;46
61500;BME280;47361;49.996;19.918;2024-03-29T08:39:54;97931.23000000001;;;13.2;45
61500;BME280;47361;49.996;19.918;2024-03-29T08:42:54;97948.63;;;13.3;45
61500;BME280;47361;49.996;19.918;2024-03-29T08:45:54;97951.83;;;13.4;44
61500;BME280;47361;49.996;19.918;2024-03-29T08:48:54;97944.68000000001;;;13.5;44
61500;BME280;47361;49.996;19.918;2024-03-29T08:51:54;97945.92;;;13.6;45
61500;BME280;47361;49.996;19.918;2024-03-29T08:54:54;97951.03;;;13.7;44
61500;BME280;47361;49.996;19.918;2024-03-29T08:57:54;97954.19;;;13.8;44
61500;BME280;47361;49.996;19.918;2024-03-29T08:59:54;97955.25;;;13.9;43
61500;BME280;47361;49.996;19.918;2024-03-29T09:06:54;97962.54000000001;;;14.0;44
61500;BME280;47361;49.996;19.918;2024-03-29T09:09:54;97955.56;;;14.1;44
61500;BME280;47361;49.996;19.918;2024-03-29T09:14:54;97962.27;;;14.2;41
61500;BME280;47361;49.996;19.918;2024-03-29T09:15:54;97966.64;;;14.3;38
61500;BME280;47361;49.996;19.918;2024-03-29T09:19:54;97963.43000000001;;;14.4;39
61500;BME280;47361;49.996;19.918;2024-03-29T09:23:54;97960.65999999999;;;14.5;39
61500;BME280;47361;49.996;19.918;2024-03-29T09:25:54;97960.69;;;14.6;38
61500;BME280;47361;49.996;19.918;2024-03-29T09:28:54;97952.17;;;14.7;37
61500;BME280;47361;49.996;19.918;2024-03-29T09:29:54;97947.66;;;14.8;38
61500;BME280;47361;49.996;19.918;2024-03-29T09:33:54;97945.37;;;14.9;37
61500;BME280;47361;49.996;19.918;2024-03-29T09:36:54;97946.14;;;15.0;37
61500;BME280;47361;49.996;19.918;2024-03-29T09:38:54;97953.08;;;15.1;36
61500;BME280;47361;49.996;19.918;2024-03-29T09:40:56;97946.04000000001;;;15.2;36
61500;BME280;47361;49.996;19.918;2024-03-29T09:50:54;97972.91;;;15.3;35
61500;BME280;47361;49.996;19.918;2024-03-29T09:52:54;97971.12;;;15.4;35
61500;BME280;47361;49.996;19.918;2024-03-29T09:55:54;97969.09000000001;;;15.5;34
61500;BME280;47361;49.996;19.918;2024-03-29T09:57:54;97960.53;;;15.4;33
61500;BME280;47361;49.996;19.918;2024-03-29T09:58:54;97965.31;;;15.5;34
61500;BME280;47361;49.996;19.918;2024-03-29T10:03:54;97958.43;;;15.6;34
61500;BME280;47361;49.996;19.918;2024-03-29T10:04:55;97952.82999999999;;;15.7;35
61500;BME280;47361;49.996;19.918;2024-03-29T10:07:54;97949.61;;;15.8;36
61500;BME280;47361;49.996;19.918;2024-03-29T10:09:54;97949.87999999999;;;15.9;34
61500;BME280;47361;49.996;19.918;2024-03-29T10:12:54;97945.98;;;16.0;35
61500;BME280;47361;49.996;19.918;2024-03-29T10:14:54;97945.94;;;15.9;34
61500;BME280;47361;49.996;19.918;2024-03-29T10:19:54;97946.23;;;16.0;35
61500;BME280;47361;49.996;19.918;2024-03-29T10:22:55;97953.33;;;16.2;37
61500;BME280;47361;49.996;19.918;2024-03-29T10:23:54;97953.09;;;16.3;38
61500;BME280;47361;49.996;19.918;2024-03-29T10:24:56;97952.45999999999;;;16.4;39
61500;BME280;47361;49.996;19.918;2024-03-29T10:25:54;97957.69;;;16.5;40
61500;BME280;47361;49.996;19.918;2024-03-29T10:26:54;97956.84;;;16.6;39
61500;BME280;47361;49.996;19.918;2024-03-29T10:28:54;97950.40000000001;;;16.7;39
61500;BME280;47361;49.996;19.918;2024-03-29T10:29:54;97950.23;;;16.8;40
61500;BME280;47361;49.996;19.918;2024-03-29T10:30:54;97950.69;;;16.9;39
61500;BME280;47361;49.996;19.918;2024-03-29T10:33:54;97948.92;;;17.0;40
61500;BME280;47361;49.996;19.918;2024-03-29T10:34:54;97947.65;;;17.1;39
61500;BME280;47361;49.996;19.918;2024-03-29T10:36:54;97947.97;;;17.2;40
61500;BME280;47361;49.996;19.918;2024-03-29T10:38:54;97941.25;;;17.3;40
61500;BME280;47361;49.996;19.918;2024-03-29T10:39:54;97941.21;;;17.4;40
61500;BME280;47361;49.996;19.918;2024-03-29T10:41:54;97940.86;;;17.5;39
61500;BME280;47361;49.996;19.918;2024-03-29T10:44:54;97944.6;;;17.6;41
61500;BME280;47361;49.996;19.918;2024-03-29T10:45:54;97941.64;;;17.7;38
61500;BME280;47361;49.996;19.918;2024-03-29T10:49:54;97942.1;;;17.8;38
61500;BME280;47361;49.996;19.918;2024-03-29T10:50:54;97943.26;;;17.9;40
61500;BME280;47361;49.996;19.918;2024-03-29T10:52:54;97939.79000000001;;;18.0;39
61500;BME280;47361;49.996;19.918;2024-03-29T10:59:57;97936.6;;;18.1;37
61500;BME280;47361;49.996;19.918;2024-03-29T11:03:55;97921.56999999999;;;18.2;36
61500;BME280;47361;49.996;19.918;2024-03-29T11:05:55;97918.56;;;18.1;36
61500;BME280;47361;49.996;19.918;2024-03-29T11:08:54;97911.15999999999;;;18.0;30
61500;BME280;47361;49.996;19.918;2024-03-29T11:09:56;97917.04999999999;;;17.9;30
61500;BME280;47361;49.996;19.918;2024-03-29T11:11:54;97912.19;;;17.8;31
61500;BME280;47361;49.996;19.918;2024-03-29T11:15:54;97899.72;;;17.7;31
61500;BME280;47361;49.996;19.918;2024-03-29T11:18:54;97894.7;;;17.8;31
61500;BME280;47361;49.996;19.918;2024-03-29T11:19:54;97889.81;;;17.9;31
61500;BME280;47361;49.996;19.918;2024-03-29T11:21:54;97894.9;;;18.0;30
61500;BME280;47361;49.996;19.918;2024-03-29T11:22:54;97890.4;;;17.9;28
61500;BME280;47361;49.996;19.918;2024-03-29T11:28:03;97875.5;;;17.8;28
61500;BME280;47361;49.996;19.918;2024-03-29T11:28:54;97881.25;;;17.9;28
61500;BME280;47361;49.996;19.918;2024-03-29T11:30:57;97888.43000000001;;;18.0;29
61500;BME280;47361;49.996;19.918;2024-03-29T11:32:54;97886.37999999999;;;18.1;28
61500;BME280;47361;49.996;19.918;2024-03-29T11:33:56;97878.06;;;18.2;29
61500;BME280;47361;49.996;19.918;2024-03-29T11:35:54;97870.15;;;18.3;29
61500;BME280;47361;49.996;19.918;2024-03-29T11:38:55;97863.01;;;18.4;27
61500;BME280;47361;49.996;19.918;2024-03-29T11:40:54;97865.91;;;18.3;28
61500;BME280;47361;49.996;19.918;2024-03-29T11:43:54;97867.13;;;18.4;29
61500;BME280;47361;49.996;19.918;2024-03-29T11:45:54;97868.59;;;18.3;28
61500;BME280;47361;49.996;19.918;2024-03-29T11:47:54;97861.15;;;18.4;29
61500;BME280;47361;49.996;19.918;2024-03-29T11:50:54;97857.98;;;18.5;28
61500;BME280;47361;49.996;19.918;2024-03-29T11:53:54;97854.39;;;18.6;29
61500;BME280;47361;49.996;19.918;2024-03-29T11:54:54;97849.72;;;18.7;29
61500;BME280;47361;49.996;19.918;2024-03-29T11:56:54;97849.7;;;18.8;30
61500;BME280;47361;49.996;19.918;2024-03-29T11:58:54;97844.23000000001;;;18.9;29
61500;BME280;47361;49.996;19.918;2024-03-29T12:00:55;97841.4;;;18.8;27
61500;BME280;47361;49.996;19.918;2024-03-29T12:03:54;97834.95;;;18.9;28
61500;BME280;47361;49.996;19.918;2024-03-29T12:05:55;97834.09;;;19.0;29
61500;BME280;47361;49.996;19.918;2024-03-29T12:08:54;97826.89;;;19.1;29
61500;BME280;47361;49.996;19.918;2024-03-29T12:10:54;97817.46;;;19.2;30
61500;BME280;47361;49.996;19.918;2024-03-29T12:13:54;97802.06;;;19.1;27
61500;BME280;47361;49.996;19.918;2024-03-29T12:17:54;97795.68000000001;;;19.0;29
61500;BME280;47361;49.996;19.918;2024-03-29T12:23:54;97784.88;;;19.1;28
61500;BME280;47361;49.996;19.918;2024-03-29T12:24:54;97799.34;;;19.2;29
61500;BME280;47361;49.996;19.918;2024-03-29T12:28:54;97788.73;;;19.3;30
61500;BME280;47361;49.996;19.918;2024-03-29T12:29:54;97791.61;;;19.4;29
61500;BME280;47361;49.996;19.918;2024-03-29T12:31:56;97784.53;;;19.5;30
61500;BME280;47361;49.996;19.918;2024-03-29T12:33:54;97786.31;;;19.6;28
61500;BME280;47361;49.996;19.918;2024-03-29T12:43:54;97782.36;;;19.7;30
61500;BME280;47361;49.996;19.918;2024-03-29T12:44:54;97784.44;;;19.8;30
61500;BME280;47361;49.996;19.918;2024-03-29T12:45:54;97783.48999999999;;;19.9;30
61500;BME280;47361;49.996;19.918;2024-03-29T12:47:54;97785.79999999999;;;20.0;28
61500;BME280;47361;49.996;19.918;2024-03-29T12:48:57;97788.19;;;20.1;30
61500;BME280;47361;49.996;19.918;2024-03-29T12:50:54;97788.11;;;20.2;30
61500;BME280;47361;49.996;19.918;2024-03-29T12:51:55;97788.95;;;20.3;29
61500;BME280;47361;49.996;19.918;2024-03-29T12:53:54;97793.69;;;20.5;31
61500;BME280;47361;49.996;19.918;2024-03-29T12:55:54;97793.34;;;20.6;30
61500;BME280;47361;49.996;19.918;2024-03-29T12:57:54;97791.54999999999;;;20.5;27
61500;BME280;47361;49.996;19.918;2024-03-29T13:01:54;97777.66;;;20.6;29
61500;BME280;47361;49.996;19.918;2024-03-29T13:09:54;97760.58;;;20.5;27
61500;BME280;47361;49.996;19.918;2024-03-29T13:10:54;97759.07999999999;;;20.4;28
61500;BME280;47361;49.996;19.918;2024-03-29T13:11:54;97763.17;;;20.3;28
61500;BME280;47361;49.996;19.918;2024-03-29T13:13:54;97766.03;;;20.4;28
61500;BME280;47361;49.996;19.918;2024-03-29T13:16:54;97772.97;;;20.5;29
61500;BME280;47361;49.996;19.918;2024-03-29T13:18:54;97775.37;;;20.6;29
61500;BME280;47361;49.996;19.918;2024-03-29T13:23:54;97762.7;;;20.7;27
61500;BME280;47361;49.996;19.918;2024-03-29T13:24:54;97764.83;;;20.8;29
61500;BME280;47361;49.996;19.918;2024-03-29T13:26:54;97770.36;;;20.7;28
61500;BME280;47361;49.996;19.918;2024-03-29T13:28:54;97763.83;;;20.8;28
61500;BME280;47361;49.996;19.918;2024-03-29T13:31:54;97768.12999999999;;;20.9;29
61500;BME280;47361;49.996;19.918;2024-03-29T13:33:54;97766.53;;;21.0;29
61500;BME280;47361;49.996;19.918;2024-03-29T13:36:54;97767.46;;;20.9;29
61500;BME280;47361;49.996;19.918;2024-03-29T13:37:54;97771.34;;;20.7;29
61500;BME280;47361;49.996;19.918;2024-03-29T13:38:54;97775.31;;;20.8;29
61500;BME280;47361;49.996;19.918;2024-03-29T13:39:55;97774.19;;;20.6;29
61500;BME280;47361;49.996;19.918;2024-03-29T13:41:54;97770.39;;;20.5;29
61500;BME280;47361;49.996;19.918;2024-03-29T13:42:54;97768.98;;;20.4;30
61500;BME280;47361;49.996;19.918;2024-03-29T13:44:54;97765.59999999999;;;20.5;30
61500;BME280;47361;49.996;19.918;2024-03-29T13:45:54;97765.69;;;20.4;30
61500;BME280;47361;49.996;19.918;2024-03-29T13:46:54;97771.1;;;20.5;30
61500;BME280;47361;49.996;19.918;2024-03-29T13:48:54;97766.54;;;20.7;30
61500;BME280;47361;49.996;19.918;2024-03-29T13:50:54;97771.28;;;20.6;30
61500;BME280;47361;49.996;19.918;2024-03-29T13:52:54;97760.1;;;20.5;30
61500;BME280;47361;49.996;19.918;2024-03-29T13:53:54;97762.59;;;20.6;31
61500;BME280;47361;49.996;19.918;2024-03-29T13:58:54;97766.03;;;20.7;31
61500;BME280;47361;49.996;19.918;2024-03-29T14:00:54;97771.97;;;20.8;31
61500;BME280;47361;49.996;19.918;2024-03-29T14:01:54;97762.69;;;20.9;31
61500;BME280;47361;49.996;19.918;2024-03-29T14:02:54;97760.11;;;20.8;30
61500;BME280;47361;49.996;19.918;2024-03-29T14:03:54;97758.64;;;20.7;30
61500;BME280;47361;49.996;19.918;2024-03-29T14:05:54;97760.88;;;20.6;30
61500;BME280;47361;49.996;19.918;2024-03-29T14:08:54;97757.4;;;20.7;31
61500;BME280;47361;49.996;19.918;2024-03-29T14:10:54;97756.03;;;20.6;30
61500;BME280;47361;49.996;19.918;2024-03-29T14:20:54;97752.66;;;20.5;31
61500;BME280;47361;49.996;19.918;2024-03-29T14:21:54;97755.9;;;20.4;31
61500;BME280;47361;49.996;19.918;2024-03-29T14:23:54;97755.55;;;20.5;31
61500;BME280;47361;49.996;19.918;2024-03-29T14:24:54;97753.49;;;20.6;32
61500;BME280;47361;49.996;19.918;2024-03-29T14:27:54;97759.12;;;20.7;31
61500;BME280;47361;49.996;19.918;2024-03-29T14:28:54;97760.06;;;20.8;31
61500;BME280;47361;49.996;19.918;2024-03-29T14:33:54;97765.78;;;20.9;31
61500;BME280;47361;49.996;19.918;2024-03-29T14:35:54;97763.79;;;21.0;31
61500;BME280;47361;49.996;19.918;2024-03-29T14:38:54;97760.94;;;21.2;30
61500;BME280;47361;49.996;19.918;2024-03-29T14:39:54;97757.92;;;21.0;30
61500;BME280;47361;49.996;19.918;2024-03-29T14:40:54;97759.01;;;21.1;32
61500;BME280;47361;49.996;19.918;2024-03-29T14:42:54;97759.59;;;21.2;31
61500;BME280;47361;49.996;19.918;2024-03-29T14:45:54;97762.08;;;21.3;31
61500;BME280;47361;49.996;19.918;2024-03-29T14:48:54;97761.03;;;21.4;32
61500;BME280;47361;49.996;19.918;2024-03-29T14:53:54;97770.25;;;21.5;32
61500;BME280;47361;49.996;19.918;2024-03-29T14:54:54;97766.06;;;21.4;30
61500;BME280;47361;49.996;19.918;2024-03-29T14:59:54;97785.05;;;21.3;30
61500;BME280;47361;49.996;19.918;2024-03-29T15:02:54;97783.51;;;21.2;30
61500;BME280;47361;49.996;19.918;2024-03-29T15:05:54;97790.15000000001;;;21.3;30
61500;BME280;47361;49.996;19.918;2024-03-29T15:06:54;97789.23;;;21.2;30
61500;BME280;47361;49.996;19.918;2024-03-29T15:07:54;97793.47;;;21.1;31
61500;BME280;47361;49.996;19.918;2024-03-29T15:08:54;97795.45000000001;;;21.2;31
61500;BME280;47361;49.996;19.918;2024-03-29T15:12:54;97794.6;;;21.3;32
61500;BME280;47361;49.996;19.918;2024-03-29T15:13:54;97794.17;;;21.5;32
61500;BME280;47361;49.996;19.918;2024-03-29T15:14:54;97796.59;;;21.6;31
61500;BME280;47361;49.996;19.918;2024-03-29T15:15:55;97797.18000000001;;;21.8;31
61500;BME280;47361;49.996;19.918;2024-03-29T15:17:54;97792.42;;;21.9;31
61500;BME280;47361;49.996;19.918;2024-03-29T15:18:54;97791.65000000001;;;22.0;31
61500;BME280;47361;49.996;19.918;2024-03-29T15:20:55;97789.67;;;22.1;30
61500;BME280;47361;49.996;19.918;2024-03-29T15:23:54;97787.49;;;22.2;31
61500;BME280;47361;49.996;19.918;2024-03-29T15:25:55;97788.55;;;22.3;30
61500;BME280;47361;49.996;19.918;2024-03-29T15:28:54;97781.09;;;22.4;31
61500;BME280;47361;49.996;19.918;2024-03-29T15:30:54;97779.4;;;22.5;30
61500;BME280;47361;49.996;19.918;2024-03-29T15:34:54;97782.39;;;22.4;29
61500;BME280;47361;49.996;19.918;2024-03-29T15:38:54;97779.85;;;22.5;31
61500;BME280;47361;49.996;19.918;2024-03-29T15:42:54;97783.78;;;22.4;31
61500;BME280;47361;49.996;19.918;2024-03-29T15:44:54;97779.08;;;22.2;31
61500;BME280;47361;49.996;19.918;2024-03-29T15:45:54;97779.22;;;22.1;32
61500;BME280;47361;49.996;19.918;2024-03-29T15:46:54;97775.29;;;22.0;32
61500;BME280;47361;49.996;19.918;2024-03-29T15:47:54;97774.36;;;21.8;33
61500;BME280;47361;49.996;19.918;2024-03-29T15:48:54;97779.02;;;21.7;33
61500;BME280;47361;49.996;19.918;2024-03-29T15:49:54;97772.24;;;21.5;33
61500;BME280;47361;49.996;19.918;2024-03-29T15:50:54;97775.87;;;21.2;33